This is the latest recevied weather packets stored in our database for station/object YB2YEN-13. If no packets are shown the sender has not sent any weather packets the latest 1 day(s).
| Time | Temp. | Humidity | Pressure | Rain* | Wind** | Luminosity | Snow |
|---|---|---|---|---|---|---|---|
| 1778040071 | 33.33° C | 72% | 978 hPa | - | 0 m/s | 0 W/m² | - |
| 1778039750 | 33.89° C | 76% | 978 hPa | - | 0 m/s | 0 W/m² | - |
| 1778039428 | 32.78° C | 82% | 978 hPa | - | 0 m/s | 0 W/m² | - |
| 1778039105 | 32.78° C | 82% | 978 hPa | - | 0 m/s | 0 W/m² | - |
| 1778038783 | 33.33° C | 80% | 978 hPa | - | 0 m/s | 0 W/m² | - |
| 1778038461 | 33.33° C | 74% | 978 hPa | - | 0 m/s | 0 W/m² | - |
| 1778038139 | 33.89° C | 86% | 978 hPa | - | 0 m/s | 0 W/m² | - |
| 1778037817 | 32.78° C | 86% | 978 hPa | - | 0 m/s | 0 W/m² | - |
| 1778037495 | 32.78° C | 78% | 978 hPa | - | 0 m/s | 0 W/m² | - |
| 1778037173 | 32.22° C | 87% | 979 hPa | - | 0 m/s | 0 W/m² | - |
| 1778036851 | 33.89° C | 75% | 979 hPa | - | 0 m/s | 0 W/m² | - |
| 1778036529 | 31.67° C | 91% | 979 hPa | - | 0 m/s | 0 W/m² | - |
| 1778036207 | 31.67° C | 88% | 979 hPa | - | 0 m/s | 0 W/m² | - |
| 1778035885 | 31.67° C | 96% | 979 hPa | - | 0 m/s | 0 W/m² | - |
| 1778035563 | 31.67° C | 99% | 979 hPa | - | 0 m/s | 0 W/m² | - |
| 1778035241 | 31.11° C | 96% | 979 hPa | - | 0 m/s | 0 W/m² | - |
| 1778034956 | 31.11° C | 97% | 979 hPa | - | 0 m/s | 0 W/m² | - |
| 1778034635 | 31.11° C | 97% | 979 hPa | - | 0 m/s | 0 W/m² | - |
| 1778034312 | 31.11° C | 93% | 979 hPa | - | 0 m/s | 0 W/m² | - |
| 1778033990 | 31.67° C | 93% | 979 hPa | - | 0 m/s | 0 W/m² | - |
| 1778033668 | 30.56° C | 98% | 979 hPa | - | 0 m/s | 0 W/m² | - |
| 1778033346 | 30.56° C | 98% | 979 hPa | - | 0 m/s | 0 W/m² | - |
| 1778033024 | 31.11° C | 95% | 979 hPa | - | 0 m/s | 0 W/m² | - |
| 1778032702 | 30.56° C | 99% | 979 hPa | - | 0 m/s | 0 W/m² | - |
| 1778032380 | 30.56° C | 99% | 979 hPa | - | 0 m/s | 0 W/m² | - |
* Rain since midnight (hover to see other rain measurements)
** Current wind speed in m/s (hover to see current wind gust speed)